AirNav   Airventure
 
 1275 users online  

MA45 Simmons Heliport
Hanover, Massachusetts, USA

GOING TO HANOVER?


FAA INFORMATION EFFECTIVE 20 JULY 2017

Location

FAA Identifier: MA45
Lat/Long: 42-07-30.3640N / 070-50-35.1520W
42-07.506067N / 070-50.585867W
42.1251011 / -70.8430978
(estimated)
Elevation: 90 ft. / 27 m (estimated)
Variation: 16W (1985)
From city: 1 mile N of HANOVER, MA
Time zone: UTC -4 (UTC -5 during Standard Time)
Zip code: 02339

Heliport Operations

Heliport use: Private use. Permission required prior to landing
Activation date: 01/1975
Control tower: no
ARTCC: BOSTON CENTER
FSS: BRIDGEPORT FLIGHT SERVICE STATION
Attendance: UNATNDD
Wind indicator: yes
Segmented circle: no

Heliport Communications

WX AWOS-3 at GHG (8 nm E): 120.0 (781-837-0555)
WX ASOS at PYM (14 nm S): 135.625 (508-746-8003)
WX ASOS at OWD (15 nm W): PHONE 781-762-4314
WX ASOS at BOS (16 nm NW): PHONE 617-567-5762
WX ASOS at TAN (17 nm SW): 132.675 (508-824-5005)

Nearby radio navigation aids

VOR radial/distance  VOR name  Freq  Var
BOSr171/15.4BOSTON VOR/DME112.7016W
PVDr061/35.5PROVIDENCE VOR/DME115.6014W
LFVr296/36.5MARCONI VOR/DME114.7016W
LWMr178/38.6LAWRENCE VOR/DME112.5015W

 
NDB name  Hdg/Dist  Freq  Var  ID
MARSHFIELD298/7.636816WIMR .. -- .-.
TAUNTON043/16.822716WTAN - .- -.
SHAKER HILL159/24.825116WSKR ... -.- .-.
PROVINCETOWN293/27.838916WPVC .--. ...- -.-.

Heliport Services

Airframe service: NONE
Powerplant service: NONE

Runway Information

Helipad H1

Dimensions: 50 x 50 ft. / 15 x 15 m
Surface: concrete
Traffic pattern: leftleft

Heliport Ownership and Management from official FAA records

Ownership: Privately-owned
Owner: STEVEN E SIMMONS
SILVER ST
HANOVER, MA 02339
Phone 617-826-4735

Heliport Operational Statistics

Aircraft based on the field: 1
Helicopters: 1
    

Instrument Procedures

There are no published instrument procedures at MA45.

Some nearby airports with instrument procedures:

KGHG - Marshfield Municipal Airport - George Harlow Field (8 nm E)
KPYM - Plymouth Municipal Airport (14 nm S)
KOWD - Norwood Memorial Airport (15 nm W)
KBOS - General Edward Lawrence Logan International Airport (16 nm NW)
KTAN - Taunton Municipal Airport - King Field (17 nm SW)
1B9 - Mansfield Municipal Airport (17 nm SW)
 
Loc | Ops | Rwys | IFR | FBO | Links
Com | Nav | Svcs | Stats | Notes


 
Area around MA45 (Simmons Heliport)
 
Road maps at: MapQuest Bing Google
 
Aerial photo
No photo
 
Sectional chart

 
Airport distance calculator
Flying to Simmons Heliport? Find the distance to fly.

From to MA45

Sunrise and sunset
Times for 24-Jul-2017
 Local
(UTC-4)
 Zulu
(UTC)
Morning civil twilight04:5708:57
Sunrise05:3009:30
Sunset20:1000:10
Evening civil twilight20:4300:43

Current date and time
Zulu (UTC)  24-Jul-2017 13:24:57
Local (UTC-4)  24-Jul-2017 09:24:57
 
METAR
KGHG 
8nm E 
241255Z AUTO 08008KT 5SM -DZ FEW028 SCT040 BKN050 18/15 A2993 RMK AO2 LTG DSNT S
KMQE 
13nm NW 
241256Z AUTO 08014G20KT 14/12 A2993 RMK AO1 SLP144 P0005 T01390117
KPYM 
13nm S 
241252Z AUTO 08008KT 10SM -RA OVC070 16/13 A2992 RMK AO2 SLP132 P0002 T01560128 TSNO
KOWD 
15nm W 
241253Z 05006KT 9SM -RA FEW055 OVC075 16/14 A2993 RMK AO2 SLP134 P0005 T01610139 $
KBOS 
16nm NW 
241254Z 09013KT 5SM -RA BR OVC046 17/14 A2995 RMK AO2 SLP143 P0002 T01670144
KTAN 
16nm SW 
241252Z AUTO 03004KT 10SM -RA FEW070 BKN120 16/14 A2991 RMK AO2 SLP128 P0002 T01610139
TAF
KBOS 
16nm NW 
241126Z 2412/2518 10010G17KT P6SM -RA OVC050 FM241400 09013G23KT 3SM RA OVC030 FM241700 07015G24KT 3SM RA BR OVC020 FM241900 06015G25KT 3SM -SHRA BR OVC010 FM242300 04016G26KT 3SM BR OVC008 FM250300 03013KT P6SM OVC008 FM251200 35011KT P6SM BKN008 FM251400 36011KT P6SM BKN015
NOTAMs
Click for the latest NOTAMs
NOTAMs are issued by the DoD/FAA and will open in a separate window not controlled by AirNav.

 

 
 

Would you like to see your business listed on this page?

 If your business provides an interesting product or service to pilots, flight crews, aircraft, or users of the Simmons Heliport, you should consider listing it here.  To start the listing process, click on the button below
 
Add a business
 

Other Pages about Simmons Heliport

Update a link
 
Copyright © AirNav, LLC. All rights reserved. Privacy Policy  Contact